createdAt,value
2022-07-31T00:06:14.013Z,101142.53
2022-07-31T00:20:17.603Z,101144.03
2022-07-31T00:27:19.206Z,101137.25
2022-07-31T00:34:20.825Z,101136.25
2022-07-31T00:41:22.428Z,101128.63
2022-07-31T00:48:24.887Z,101123.88
2022-07-31T00:55:26.482Z,101116.69
2022-07-31T01:02:28.111Z,101114.84
2022-07-31T01:09:29.919Z,101113.69
2022-07-31T01:16:34.094Z,101111.84
2022-07-31T01:24:01.700Z,101112.72
2022-07-31T01:31:27.082Z,101112.84
2022-07-31T01:38:32.911Z,101123.06
2022-07-31T01:45:35.316Z,101115.88
2022-07-31T01:52:38.233Z,101117.44
2022-07-31T01:59:44.499Z,101121.59
2022-07-31T02:06:54.210Z,101116.13
2022-07-31T02:13:55.876Z,101123.47
2022-07-31T02:20:57.842Z,101110.06
2022-07-31T02:28:00.613Z,101117.25
2022-07-31T02:35:02.431Z,101111.91
2022-07-31T02:42:04.468Z,101118.75
2022-07-31T02:49:06.602Z,101116.59
2022-07-31T02:56:09.342Z,101119.44
2022-07-31T03:03:13.416Z,101117.25
2022-07-31T03:10:16.571Z,101102.13
2022-07-31T03:17:38.315Z,101093.94
2022-07-31T03:24:50.063Z,101092.16
2022-07-31T03:31:54.138Z,101083.66
2022-07-31T03:38:55.958Z,101085.31
2022-07-31T03:46:03.351Z,101082.88
2022-07-31T03:53:07.224Z,101078.69
2022-07-31T04:00:17.734Z,101079.13
2022-07-31T04:07:19.774Z,101086.53
2022-07-31T04:14:21.725Z,101100.41
2022-07-31T04:21:23.395Z,101095.91
2022-07-31T04:28:26.350Z,101091.91
2022-07-31T04:35:28.073Z,101097.81
2022-07-31T04:42:32.636Z,101101.34
2022-07-31T04:49:34.927Z,101113.88
2022-07-31T04:56:42.181Z,101100.34
2022-07-31T05:03:44.016Z,101114.47
2022-07-31T05:11:04.400Z,101103.84
2022-07-31T05:18:07.687Z,101108.50
2022-07-31T05:25:27.583Z,101118.91
2022-07-31T05:32:29.226Z,101120.69
2022-07-31T05:39:30.999Z,101104.31
2022-07-31T05:53:52.966Z,101111.53
2022-07-31T06:01:13.495Z,101119.31
2022-07-31T06:08:17.235Z,101129.41
2022-07-31T06:15:22.729Z,101134.31
2022-07-31T06:29:41.313Z,101131.91
2022-07-31T06:36:44.441Z,101118.47
2022-07-31T06:43:49.797Z,101125.53
2022-07-31T06:51:29.810Z,101115.97
2022-07-31T06:58:32.012Z,101111.88
2022-07-31T07:05:34.511Z,101113.16
2022-07-31T07:12:37.941Z,101111.31
2022-07-31T07:19:40.636Z,101105.72
2022-07-31T07:26:43.387Z,101097.00
2022-07-31T07:33:45.569Z,101094.19
2022-07-31T07:40:53.702Z,101092.13
2022-07-31T07:48:06.214Z,101077.94
2022-07-31T07:55:21.155Z,101070.97
2022-07-31T08:03:46.787Z,101070.00
2022-07-31T08:10:19.108Z,101059.13
2022-07-31T08:17:25.766Z,101064.53
2022-07-31T08:24:27.552Z,101060.13
2022-07-31T08:31:30.523Z,101064.09
2022-07-31T08:39:03.487Z,101067.59
2022-07-31T08:46:25.918Z,101053.94
2022-07-31T08:53:29.274Z,101053.56
2022-07-31T09:00:45.622Z,101043.78
2022-07-31T09:07:47.376Z,101047.09
2022-07-31T09:14:49.490Z,101037.00
2022-07-31T09:21:52.410Z,101025.06
2022-07-31T09:28:55.186Z,101014.88
2022-07-31T09:35:57.661Z,101010.19
2022-07-31T09:42:59.367Z,101012.59
2022-07-31T09:50:05.345Z,101008.97
2022-07-31T09:57:14.864Z,100997.13
2022-07-31T10:04:23.579Z,100993.47
2022-07-31T10:11:26.227Z,100997.28
2022-07-31T10:18:47.587Z,100993.22
2022-07-31T10:26:10.423Z,100989.63
2022-07-31T10:33:40.862Z,100971.25
2022-07-31T10:41:00.066Z,100969.91
2022-07-31T10:48:03.923Z,100967.41
2022-07-31T10:55:27.098Z,100965.41
2022-07-31T11:02:51.653Z,100952.78
2022-07-31T11:10:17.836Z,100949.22
2022-07-31T11:18:17.444Z,100947.44
2022-07-31T11:25:00.505Z,100937.88
2022-07-31T11:32:05.062Z,100946.19
2022-07-31T11:39:06.788Z,100938.09
2022-07-31T11:46:08.776Z,100939.50
2022-07-31T11:53:10.936Z,100939.16
2022-07-31T12:00:26.679Z,100925.59
2022-07-31T12:07:31.010Z,100911.84
2022-07-31T12:14:37.177Z,100898.25
2022-07-31T12:21:40.104Z,100901.78
2022-07-31T12:28:41.788Z,100898.59
2022-07-31T12:35:56.284Z,100891.22
2022-07-31T12:42:59.563Z,100893.69
2022-07-31T12:50:01.390Z,100901.22
2022-07-31T12:57:03.640Z,100892.72
2022-07-31T13:04:07.470Z,100886.69
2022-07-31T13:11:09.801Z,100878.53
2022-07-31T13:18:11.476Z,100862.03
2022-07-31T13:25:13.165Z,100853.03
2022-07-31T13:32:15.164Z,100840.81
2022-07-31T13:39:16.856Z,100837.25
2022-07-31T13:46:19.220Z,100827.38
2022-07-31T13:53:20.905Z,100817.81
2022-07-31T14:00:22.543Z,100819.13
2022-07-31T14:07:24.138Z,100802.38
2022-07-31T14:14:45.744Z,100802.13
2022-07-31T14:21:56.141Z,100797.09
2022-07-31T14:29:09.842Z,100786.44
2022-07-31T14:36:11.511Z,100776.03
2022-07-31T14:43:13.093Z,100775.66
2022-07-31T14:50:19.065Z,100782.47
2022-07-31T14:57:22.500Z,100773.72
2022-07-31T15:04:24.415Z,100765.28
2022-07-31T15:11:59.397Z,100766.25
2022-07-31T15:18:51.305Z,100773.59
2022-07-31T15:25:53.272Z,100767.38
2022-07-31T15:32:54.937Z,100759.44
2022-07-31T15:40:01.600Z,100753.16
2022-07-31T15:47:05.377Z,100759.06
2022-07-31T15:54:07.187Z,100751.44
2022-07-31T16:01:09.113Z,100751.13
2022-07-31T16:08:30.841Z,100749.50
2022-07-31T16:15:34.530Z,100746.91
2022-07-31T16:22:37.171Z,100754.44
2022-07-31T16:29:59.925Z,100751.78
2022-07-31T16:37:00.385Z,100748.41
2022-07-31T16:44:02.110Z,100738.94
2022-07-31T16:51:04.049Z,100731.69
2022-07-31T16:58:08.752Z,100735.19
2022-07-31T17:05:10.348Z,100735.59
2022-07-31T17:12:12.072Z,100728.13
2022-07-31T17:19:13.680Z,100738.66
2022-07-31T17:26:20.840Z,100728.19
2022-07-31T17:33:23.355Z,100724.31
2022-07-31T17:40:46.807Z,100728.34
2022-07-31T17:47:48.403Z,100729.41
2022-07-31T17:55:06.534Z,100726.38
2022-07-31T18:02:08.710Z,100731.47
2022-07-31T18:09:11.108Z,100736.56
2022-07-31T18:16:12.739Z,100727.94
2022-07-31T18:23:14.570Z,100724.94
2022-07-31T18:30:16.783Z,100725.75
2022-07-31T18:37:18.404Z,100730.38
2022-07-31T18:44:21.867Z,100737.00
2022-07-31T18:51:24.707Z,100729.28
2022-07-31T18:58:26.384Z,100734.13
2022-07-31T19:05:28.177Z,100740.88
2022-07-31T19:12:29.786Z,100741.22
2022-07-31T19:19:38.273Z,100739.88
2022-07-31T19:26:53.474Z,100748.34
2022-07-31T19:33:55.094Z,100757.81
2022-07-31T19:40:56.707Z,100745.53
2022-07-31T19:47:58.996Z,100741.19
2022-07-31T19:55:00.617Z,100733.47
2022-07-31T20:02:02.566Z,100726.16
2022-07-31T20:09:05.388Z,100727.78
2022-07-31T20:16:07.019Z,100723.41
2022-07-31T20:23:09.212Z,100724.56
2022-07-31T20:30:11.596Z,100706.81
2022-07-31T20:37:13.250Z,100712.09
2022-07-31T20:44:14.921Z,100708.41
2022-07-31T20:51:21.818Z,100711.09
2022-07-31T20:58:23.849Z,100699.31
2022-07-31T21:05:29.603Z,100699.41
2022-07-31T21:12:31.227Z,100696.56
2022-07-31T21:19:32.841Z,100690.75
2022-07-31T21:26:34.449Z,100690.69
2022-07-31T21:33:36.432Z,100683.34
2022-07-31T21:40:38.768Z,100678.22
2022-07-31T21:47:52.953Z,100678.03
2022-07-31T21:54:54.912Z,100678.91
2022-07-31T22:01:57.852Z,100673.66
2022-07-31T22:09:09.819Z,100669.72
2022-07-31T22:16:11.440Z,100662.88
2022-07-31T22:23:13.248Z,100649.81
2022-07-31T22:30:15.492Z,100647.34
2022-07-31T22:37:17.113Z,100656.59
2022-07-31T22:44:22.807Z,100684.44
2022-07-31T22:51:24.754Z,100694.59
2022-07-31T22:58:26.357Z,100686.56
2022-07-31T23:05:28.075Z,100681.41
2022-07-31T23:12:29.700Z,100693.88
2022-07-31T23:19:31.383Z,100703.56
2022-07-31T23:26:33.026Z,100698.31
2022-07-31T23:33:34.609Z,100704.28
2022-07-31T23:40:36.295Z,100700.69
2022-07-31T23:47:45.521Z,100698.34
2022-07-31T23:54:48.110Z,100695.59
